sensor_id;sensor_type;location;lat;lon;timestamp;P1;durP1;ratioP1;P2;durP2;ratioP2
58354;SDS011;44160;49.080;19.302;2022-07-23T00:02:13;12.55;;;9.43;;
58354;SDS011;44160;49.080;19.302;2022-07-23T00:04:39;12.63;;;9.77;;
58354;SDS011;44160;49.080;19.302;2022-07-23T00:07:05;17.95;;;10.63;;
58354;SDS011;44160;49.080;19.302;2022-07-23T00:09:31;13.32;;;9.68;;
58354;SDS011;44160;49.080;19.302;2022-07-23T00:11:57;9.77;;;8.55;;
58354;SDS011;44160;49.080;19.302;2022-07-23T00:14:23;11.23;;;8.38;;
58354;SDS011;44160;49.080;19.302;2022-07-23T00:16:49;10.43;;;8.10;;
58354;SDS011;44160;49.080;19.302;2022-07-23T00:19:15;12.43;;;8.05;;
58354;SDS011;44160;49.080;19.302;2022-07-23T00:21:41;9.52;;;8.45;;
58354;SDS011;44160;49.080;19.302;2022-07-23T00:24:07;10.13;;;8.13;;
58354;SDS011;44160;49.080;19.302;2022-07-23T00:26:33;9.75;;;7.47;;
58354;SDS011;44160;49.080;19.302;2022-07-23T00:29:00;11.27;;;8.75;;
58354;SDS011;44160;49.080;19.302;2022-07-23T00:31:26;13.68;;;8.30;;
58354;SDS011;44160;49.080;19.302;2022-07-23T00:33:52;11.32;;;8.68;;
58354;SDS011;44160;49.080;19.302;2022-07-23T00:36:21;11.70;;;8.20;;
58354;SDS011;44160;49.080;19.302;2022-07-23T00:38:48;15.07;;;8.93;;
58354;SDS011;44160;49.080;19.302;2022-07-23T00:41:14;11.75;;;8.90;;
58354;SDS011;44160;49.080;19.302;2022-07-23T00:43:41;11.60;;;9.10;;
58354;SDS011;44160;49.080;19.302;2022-07-23T00:46:07;11.55;;;8.05;;
58354;SDS011;44160;49.080;19.302;2022-07-23T00:48:33;8.82;;;7.20;;
58354;SDS011;44160;49.080;19.302;2022-07-23T00:50:59;11.27;;;8.07;;
58354;SDS011;44160;49.080;19.302;2022-07-23T00:53:25;11.77;;;8.23;;
58354;SDS011;44160;49.080;19.302;2022-07-23T00:55:51;12.07;;;7.90;;
58354;SDS011;44160;49.080;19.302;2022-07-23T00:58:17;13.02;;;8.13;;
58354;SDS011;44160;49.080;19.302;2022-07-23T01:00:44;11.25;;;9.20;;
58354;SDS011;44160;49.080;19.302;2022-07-23T01:03:10;12.20;;;8.43;;
58354;SDS011;44160;49.080;19.302;2022-07-23T01:05:36;9.75;;;8.32;;
58354;SDS011;44160;49.080;19.302;2022-07-23T01:08:03;13.82;;;9.15;;
58354;SDS011;44160;49.080;19.302;2022-07-23T01:10:30;9.55;;;8.52;;
58354;SDS011;44160;49.080;19.302;2022-07-23T01:13:00;12.98;;;8.75;;
58354;SDS011;44160;49.080;19.302;2022-07-23T01:15:26;10.70;;;9.27;;
58354;SDS011;44160;49.080;19.302;2022-07-23T01:17:53;14.55;;;8.57;;
58354;SDS011;44160;49.080;19.302;2022-07-23T01:20:19;15.45;;;8.35;;
58354;SDS011;44160;49.080;19.302;2022-07-23T01:22:45;10.65;;;8.93;;
58354;SDS011;44160;49.080;19.302;2022-07-23T01:25:11;12.02;;;8.95;;
58354;SDS011;44160;49.080;19.302;2022-07-23T01:27:37;15.93;;;8.13;;
58354;SDS011;44160;49.080;19.302;2022-07-23T01:30:03;12.38;;;8.93;;
58354;SDS011;44160;49.080;19.302;2022-07-23T01:32:29;10.55;;;7.93;;
58354;SDS011;44160;49.080;19.302;2022-07-23T01:34:55;11.60;;;8.13;;
58354;SDS011;44160;49.080;19.302;2022-07-23T01:37:21;9.98;;;8.00;;
58354;SDS011;44160;49.080;19.302;2022-07-23T01:39:47;10.98;;;8.75;;
58354;SDS011;44160;49.080;19.302;2022-07-23T01:42:14;11.50;;;8.77;;
58354;SDS011;44160;49.080;19.302;2022-07-23T01:44:40;12.13;;;8.23;;
58354;SDS011;44160;49.080;19.302;2022-07-23T01:47:06;14.05;;;8.80;;
58354;SDS011;44160;49.080;19.302;2022-07-23T01:49:32;11.77;;;8.65;;
58354;SDS011;44160;49.080;19.302;2022-07-23T01:51:58;10.57;;;8.32;;
58354;SDS011;44160;49.080;19.302;2022-07-23T01:54:27;11.02;;;8.20;;
58354;SDS011;44160;49.080;19.302;2022-07-23T01:56:54;9.40;;;8.02;;
58354;SDS011;44160;49.080;19.302;2022-07-23T01:59:20;8.68;;;7.60;;
58354;SDS011;44160;49.080;19.302;2022-07-23T02:01:46;10.82;;;8.88;;
58354;SDS011;44160;49.080;19.302;2022-07-23T02:04:12;14.98;;;9.10;;
58354;SDS011;44160;49.080;19.302;2022-07-23T02:06:38;13.77;;;8.93;;
58354;SDS011;44160;49.080;19.302;2022-07-23T02:09:04;9.90;;;7.88;;
58354;SDS011;44160;49.080;19.302;2022-07-23T02:11:30;11.00;;;9.00;;
58354;SDS011;44160;49.080;19.302;2022-07-23T02:13:56;10.38;;;7.88;;
58354;SDS011;44160;49.080;19.302;2022-07-23T02:16:22;10.60;;;9.15;;
58354;SDS011;44160;49.080;19.302;2022-07-23T02:18:48;10.60;;;8.90;;
58354;SDS011;44160;49.080;19.302;2022-07-23T02:21:14;17.60;;;8.30;;
58354;SDS011;44160;49.080;19.302;2022-07-23T02:23:40;9.45;;;8.00;;
58354;SDS011;44160;49.080;19.302;2022-07-23T02:26:06;12.35;;;8.45;;
58354;SDS011;44160;49.080;19.302;2022-07-23T02:28:32;9.77;;;8.27;;
58354;SDS011;44160;49.080;19.302;2022-07-23T02:30:58;18.75;;;8.77;;
58354;SDS011;44160;49.080;19.302;2022-07-23T02:33:24;9.60;;;7.93;;
58354;SDS011;44160;49.080;19.302;2022-07-23T02:35:50;11.23;;;7.82;;
58354;SDS011;44160;49.080;19.302;2022-07-23T02:38:16;10.93;;;8.88;;
58354;SDS011;44160;49.080;19.302;2022-07-23T02:40:42;12.48;;;8.82;;
58354;SDS011;44160;49.080;19.302;2022-07-23T02:43:08;17.92;;;9.10;;
58354;SDS011;44160;49.080;19.302;2022-07-23T02:45:34;10.05;;;7.70;;
58354;SDS011;44160;49.080;19.302;2022-07-23T02:48:00;10.88;;;8.45;;
58354;SDS011;44160;49.080;19.302;2022-07-23T02:50:27;14.95;;;10.00;;
58354;SDS011;44160;49.080;19.302;2022-07-23T02:52:53;9.77;;;7.63;;
58354;SDS011;44160;49.080;19.302;2022-07-23T02:55:19;9.27;;;8.20;;
58354;SDS011;44160;49.080;19.302;2022-07-23T02:57:45;10.73;;;9.00;;
58354;SDS011;44160;49.080;19.302;2022-07-23T03:00:11;12.80;;;8.55;;
58354;SDS011;44160;49.080;19.302;2022-07-23T03:02:37;13.63;;;8.80;;
58354;SDS011;44160;49.080;19.302;2022-07-23T03:05:03;12.10;;;9.20;;
58354;SDS011;44160;49.080;19.302;2022-07-23T03:07:29;10.07;;;8.65;;
58354;SDS011;44160;49.080;19.302;2022-07-23T03:09:55;15.52;;;10.13;;
58354;SDS011;44160;49.080;19.302;2022-07-23T03:12:21;9.70;;;8.57;;
58354;SDS011;44160;49.080;19.302;2022-07-23T03:14:47;12.95;;;8.63;;
58354;SDS011;44160;49.080;19.302;2022-07-23T03:17:14;10.45;;;9.10;;
58354;SDS011;44160;49.080;19.302;2022-07-23T03:19:40;10.27;;;8.80;;
58354;SDS011;44160;49.080;19.302;2022-07-23T03:22:06;13.20;;;9.45;;
58354;SDS011;44160;49.080;19.302;2022-07-23T03:24:32;13.85;;;9.88;;
58354;SDS011;44160;49.080;19.302;2022-07-23T03:27:17;11.50;;;9.20;;
58354;SDS011;44160;49.080;19.302;2022-07-23T03:29:43;11.77;;;8.35;;
58354;SDS011;44160;49.080;19.302;2022-07-23T03:32:09;9.93;;;8.63;;
58354;SDS011;44160;49.080;19.302;2022-07-23T03:34:35;14.65;;;8.77;;
58354;SDS011;44160;49.080;19.302;2022-07-23T03:37:01;12.57;;;8.45;;
58354;SDS011;44160;49.080;19.302;2022-07-23T03:39:27;13.75;;;9.80;;
58354;SDS011;44160;49.080;19.302;2022-07-23T03:41:53;14.90;;;9.95;;
58354;SDS011;44160;49.080;19.302;2022-07-23T03:44:19;11.95;;;9.93;;
58354;SDS011;44160;49.080;19.302;2022-07-23T03:46:45;12.25;;;9.65;;
58354;SDS011;44160;49.080;19.302;2022-07-23T03:49:11;11.85;;;9.65;;
58354;SDS011;44160;49.080;19.302;2022-07-23T03:51:37;12.13;;;8.00;;
58354;SDS011;44160;49.080;19.302;2022-07-23T03:54:03;9.23;;;8.20;;
58354;SDS011;44160;49.080;19.302;2022-07-23T03:56:30;11.70;;;8.60;;
58354;SDS011;44160;49.080;19.302;2022-07-23T03:58:56;10.75;;;8.60;;
58354;SDS011;44160;49.080;19.302;2022-07-23T04:01:22;9.30;;;7.93;;
58354;SDS011;44160;49.080;19.302;2022-07-23T04:03:48;14.20;;;7.97;;
58354;SDS011;44160;49.080;19.302;2022-07-23T04:06:14;10.85;;;8.30;;
58354;SDS011;44160;49.080;19.302;2022-07-23T04:08:40;10.30;;;8.02;;
58354;SDS011;44160;49.080;19.302;2022-07-23T04:11:06;13.88;;;8.30;;
58354;SDS011;44160;49.080;19.302;2022-07-23T04:13:32;18.17;;;8.98;;
58354;SDS011;44160;49.080;19.302;2022-07-23T04:15:58;10.57;;;7.82;;
58354;SDS011;44160;49.080;19.302;2022-07-23T04:18:24;11.90;;;8.50;;
58354;SDS011;44160;49.080;19.302;2022-07-23T04:20:51;11.93;;;8.43;;
58354;SDS011;44160;49.080;19.302;2022-07-23T04:23:17;12.93;;;8.10;;
58354;SDS011;44160;49.080;19.302;2022-07-23T04:25:43;14.45;;;8.30;;
58354;SDS011;44160;49.080;19.302;2022-07-23T04:28:09;13.05;;;9.23;;
58354;SDS011;44160;49.080;19.302;2022-07-23T04:30:35;14.80;;;10.18;;
58354;SDS011;44160;49.080;19.302;2022-07-23T04:33:02;15.13;;;10.75;;
58354;SDS011;44160;49.080;19.302;2022-07-23T04:35:35;10.55;;;9.50;;
58354;SDS011;44160;49.080;19.302;2022-07-23T04:38:01;10.95;;;8.95;;
58354;SDS011;44160;49.080;19.302;2022-07-23T04:40:27;12.00;;;8.55;;
58354;SDS011;44160;49.080;19.302;2022-07-23T04:42:53;13.85;;;8.90;;
58354;SDS011;44160;49.080;19.302;2022-07-23T04:45:20;10.55;;;8.90;;
58354;SDS011;44160;49.080;19.302;2022-07-23T04:47:46;11.15;;;8.63;;
58354;SDS011;44160;49.080;19.302;2022-07-23T04:50:12;14.60;;;9.07;;
58354;SDS011;44160;49.080;19.302;2022-07-23T04:52:38;9.98;;;7.97;;
58354;SDS011;44160;49.080;19.302;2022-07-23T04:55:04;10.82;;;8.70;;
58354;SDS011;44160;49.080;19.302;2022-07-23T04:57:30;12.73;;;9.27;;
58354;SDS011;44160;49.080;19.302;2022-07-23T04:59:56;17.48;;;9.82;;
58354;SDS011;44160;49.080;19.302;2022-07-23T05:02:22;16.52;;;8.45;;
58354;SDS011;44160;49.080;19.302;2022-07-23T05:04:48;13.88;;;8.07;;
58354;SDS011;44160;49.080;19.302;2022-07-23T05:07:14;14.90;;;7.45;;
58354;SDS011;44160;49.080;19.302;2022-07-23T05:09:40;16.30;;;8.10;;
58354;SDS011;44160;49.080;19.302;2022-07-23T05:12:06;10.13;;;7.65;;
58354;SDS011;44160;49.080;19.302;2022-07-23T05:14:32;8.40;;;6.93;;
58354;SDS011;44160;49.080;19.302;2022-07-23T05:16:59;9.95;;;7.47;;
58354;SDS011;44160;49.080;19.302;2022-07-23T05:19:25;9.63;;;7.53;;
58354;SDS011;44160;49.080;19.302;2022-07-23T05:21:51;13.48;;;7.55;;
58354;SDS011;44160;49.080;19.302;2022-07-23T05:24:17;10.68;;;7.63;;
58354;SDS011;44160;49.080;19.302;2022-07-23T05:26:43;13.77;;;6.85;;
58354;SDS011;44160;49.080;19.302;2022-07-23T05:29:09;14.63;;;8.20;;
58354;SDS011;44160;49.080;19.302;2022-07-23T05:31:35;10.95;;;8.25;;
58354;SDS011;44160;49.080;19.302;2022-07-23T05:34:01;10.02;;;7.22;;
58354;SDS011;44160;49.080;19.302;2022-07-23T05:36:27;10.10;;;7.13;;
58354;SDS011;44160;49.080;19.302;2022-07-23T05:38:53;10.55;;;6.47;;
58354;SDS011;44160;49.080;19.302;2022-07-23T05:41:19;7.95;;;6.53;;
58354;SDS011;44160;49.080;19.302;2022-07-23T05:43:45;10.40;;;7.93;;
58354;SDS011;44160;49.080;19.302;2022-07-23T05:46:11;13.50;;;7.43;;
58354;SDS011;44160;49.080;19.302;2022-07-23T05:48:37;12.50;;;7.15;;
58354;SDS011;44160;49.080;19.302;2022-07-23T05:51:03;15.85;;;7.05;;
58354;SDS011;44160;49.080;19.302;2022-07-23T05:53:31;10.10;;;6.63;;
58354;SDS011;44160;49.080;19.302;2022-07-23T05:55:57;11.75;;;6.55;;
58354;SDS011;44160;49.080;19.302;2022-07-23T05:58:23;8.13;;;6.63;;
58354;SDS011;44160;49.080;19.302;2022-07-23T06:00:49;12.80;;;7.10;;
58354;SDS011;44160;49.080;19.302;2022-07-23T06:03:15;9.75;;;6.38;;
58354;SDS011;44160;49.080;19.302;2022-07-23T06:05:41;10.73;;;7.68;;
58354;SDS011;44160;49.080;19.302;2022-07-23T06:08:07;10.27;;;7.07;;
58354;SDS011;44160;49.080;19.302;2022-07-23T06:10:33;11.93;;;8.07;;
58354;SDS011;44160;49.080;19.302;2022-07-23T06:12:59;13.77;;;7.32;;
58354;SDS011;44160;49.080;19.302;2022-07-23T06:15:25;8.82;;;6.07;;
58354;SDS011;44160;49.080;19.302;2022-07-23T06:17:52;10.88;;;7.47;;
58354;SDS011;44160;49.080;19.302;2022-07-23T06:20:18;10.75;;;6.72;;
58354;SDS011;44160;49.080;19.302;2022-07-23T06:22:44;11.45;;;7.78;;
58354;SDS011;44160;49.080;19.302;2022-07-23T06:25:10;10.50;;;6.93;;
58354;SDS011;44160;49.080;19.302;2022-07-23T06:27:36;11.23;;;7.03;;
58354;SDS011;44160;49.080;19.302;2022-07-23T06:30:02;8.93;;;7.32;;
58354;SDS011;44160;49.080;19.302;2022-07-23T06:32:28;12.70;;;8.00;;
58354;SDS011;44160;49.080;19.302;2022-07-23T06:34:54;12.55;;;6.95;;
58354;SDS011;44160;49.080;19.302;2022-07-23T06:37:21;10.05;;;7.40;;
58354;SDS011;44160;49.080;19.302;2022-07-23T06:39:47;10.40;;;6.95;;
58354;SDS011;44160;49.080;19.302;2022-07-23T06:42:13;8.98;;;7.93;;
58354;SDS011;44160;49.080;19.302;2022-07-23T06:44:40;7.50;;;6.55;;
58354;SDS011;44160;49.080;19.302;2022-07-23T06:47:06;11.07;;;7.90;;
58354;SDS011;44160;49.080;19.302;2022-07-23T06:49:32;10.88;;;7.10;;
58354;SDS011;44160;49.080;19.302;2022-07-23T06:51:58;9.65;;;6.57;;
58354;SDS011;44160;49.080;19.302;2022-07-23T06:54:24;10.98;;;7.00;;
58354;SDS011;44160;49.080;19.302;2022-07-23T06:56:50;8.73;;;7.43;;
58354;SDS011;44160;49.080;19.302;2022-07-23T06:59:16;9.57;;;6.50;;
58354;SDS011;44160;49.080;19.302;2022-07-23T07:01:42;8.82;;;7.63;;
58354;SDS011;44160;49.080;19.302;2022-07-23T07:04:08;7.05;;;6.32;;
58354;SDS011;44160;49.080;19.302;2022-07-23T07:06:34;10.23;;;7.13;;
58354;SDS011;44160;49.080;19.302;2022-07-23T07:09:00;8.85;;;6.47;;
58354;SDS011;44160;49.080;19.302;2022-07-23T07:11:26;7.88;;;6.43;;
58354;SDS011;44160;49.080;19.302;2022-07-23T07:13:52;11.18;;;6.97;;
58354;SDS011;44160;49.080;19.302;2022-07-23T07:16:18;17.63;;;6.68;;
58354;SDS011;44160;49.080;19.302;2022-07-23T07:18:48;8.38;;;6.88;;
58354;SDS011;44160;49.080;19.302;2022-07-23T07:21:15;7.78;;;5.97;;
58354;SDS011;44160;49.080;19.302;2022-07-23T07:23:41;9.20;;;6.72;;
58354;SDS011;44160;49.080;19.302;2022-07-23T07:26:07;12.18;;;6.78;;
58354;SDS011;44160;49.080;19.302;2022-07-23T07:28:33;10.98;;;6.78;;
58354;SDS011;44160;49.080;19.302;2022-07-23T07:30:59;9.77;;;6.97;;
58354;SDS011;44160;49.080;19.302;2022-07-23T07:33:25;11.43;;;7.22;;
58354;SDS011;44160;49.080;19.302;2022-07-23T07:35:51;14.20;;;7.55;;
58354;SDS011;44160;49.080;19.302;2022-07-23T07:38:18;13.35;;;7.70;;
58354;SDS011;44160;49.080;19.302;2022-07-23T07:40:44;8.02;;;6.50;;
58354;SDS011;44160;49.080;19.302;2022-07-23T07:43:10;9.32;;;6.60;;
58354;SDS011;44160;49.080;19.302;2022-07-23T07:45:36;12.07;;;7.03;;
58354;SDS011;44160;49.080;19.302;2022-07-23T07:48:02;15.73;;;7.38;;
58354;SDS011;44160;49.080;19.302;2022-07-23T07:50:28;10.60;;;5.63;;
58354;SDS011;44160;49.080;19.302;2022-07-23T07:52:54;8.85;;;6.35;;
58354;SDS011;44160;49.080;19.302;2022-07-23T07:55:20;9.63;;;6.13;;
58354;SDS011;44160;49.080;19.302;2022-07-23T07:57:47;8.60;;;5.97;;
58354;SDS011;44160;49.080;19.302;2022-07-23T08:00:13;10.77;;;6.53;;
58354;SDS011;44160;49.080;19.302;2022-07-23T08:02:46;6.80;;;5.93;;
58354;SDS011;44160;49.080;19.302;2022-07-23T08:05:13;11.82;;;7.13;;
58354;SDS011;44160;49.080;19.302;2022-07-23T08:07:39;15.02;;;6.05;;
58354;SDS011;44160;49.080;19.302;2022-07-23T08:10:06;8.27;;;6.57;;
58354;SDS011;44160;49.080;19.302;2022-07-23T08:12:39;10.75;;;5.97;;
58354;SDS011;44160;49.080;19.302;2022-07-23T08:15:06;10.25;;;6.15;;
58354;SDS011;44160;49.080;19.302;2022-07-23T08:17:32;8.18;;;6.00;;
58354;SDS011;44160;49.080;19.302;2022-07-23T08:19:58;6.93;;;5.60;;
58354;SDS011;44160;49.080;19.302;2022-07-23T08:22:24;8.95;;;5.70;;
58354;SDS011;44160;49.080;19.302;2022-07-23T08:24:50;8.98;;;5.28;;
58354;SDS011;44160;49.080;19.302;2022-07-23T08:27:16;9.05;;;5.57;;
58354;SDS011;44160;49.080;19.302;2022-07-23T08:29:42;10.60;;;6.28;;
58354;SDS011;44160;49.080;19.302;2022-07-23T08:32:08;8.50;;;5.13;;
58354;SDS011;44160;49.080;19.302;2022-07-23T08:34:34;8.50;;;5.18;;
58354;SDS011;44160;49.080;19.302;2022-07-23T08:37:00;9.20;;;5.53;;
58354;SDS011;44160;49.080;19.302;2022-07-23T08:39:26;9.52;;;5.60;;
58354;SDS011;44160;49.080;19.302;2022-07-23T08:41:52;8.50;;;5.25;;
58354;SDS011;44160;49.080;19.302;2022-07-23T08:44:18;10.13;;;5.90;;
58354;SDS011;44160;49.080;19.302;2022-07-23T08:46:44;6.15;;;5.55;;
58354;SDS011;44160;49.080;19.302;2022-07-23T08:49:11;6.68;;;5.15;;
58354;SDS011;44160;49.080;19.302;2022-07-23T08:51:38;7.43;;;5.50;;
58354;SDS011;44160;49.080;19.302;2022-07-23T08:54:05;5.70;;;4.82;;
58354;SDS011;44160;49.080;19.302;2022-07-23T08:56:32;8.82;;;4.85;;
58354;SDS011;44160;49.080;19.302;2022-07-23T08:58:58;8.27;;;5.18;;
58354;SDS011;44160;49.080;19.302;2022-07-23T09:01:24;8.90;;;5.00;;
58354;SDS011;44160;49.080;19.302;2022-07-23T09:03:50;8.25;;;5.07;;
58354;SDS011;44160;49.080;19.302;2022-07-23T09:06:16;8.65;;;4.90;;
58354;SDS011;44160;49.080;19.302;2022-07-23T09:08:43;5.95;;;5.38;;
58354;SDS011;44160;49.080;19.302;2022-07-23T09:11:10;7.75;;;4.88;;
58354;SDS011;44160;49.080;19.302;2022-07-23T09:13:38;7.82;;;5.10;;
58354;SDS011;44160;49.080;19.302;2022-07-23T09:16:09;9.30;;;5.25;;
58354;SDS011;44160;49.080;19.302;2022-07-23T09:18:37;6.78;;;5.10;;
58354;SDS011;44160;49.080;19.302;2022-07-23T09:23:40;7.97;;;5.30;;
58354;SDS011;44160;49.080;19.302;2022-07-23T09:26:19;8.60;;;5.07;;
58354;SDS011;44160;49.080;19.302;2022-07-23T09:31:31;7.30;;;5.25;;
58354;SDS011;44160;49.080;19.302;2022-07-23T09:34:08;7.35;;;5.43;;
58354;SDS011;44160;49.080;19.302;2022-07-23T09:36:34;6.65;;;4.80;;
58354;SDS011;44160;49.080;19.302;2022-07-23T09:39:00;7.20;;;5.43;;
58354;SDS011;44160;49.080;19.302;2022-07-23T09:41:27;8.25;;;4.80;;
58354;SDS011;44160;49.080;19.302;2022-07-23T09:44:09;5.80;;;5.18;;
58354;SDS011;44160;49.080;19.302;2022-07-23T09:46:36;4.93;;;4.40;;
58354;SDS011;44160;49.080;19.302;2022-07-23T09:49:09;5.68;;;5.00;;
58354;SDS011;44160;49.080;19.302;2022-07-23T09:52:09;6.45;;;4.97;;
58354;SDS011;44160;49.080;19.302;2022-07-23T09:54:38;6.60;;;4.78;;
58354;SDS011;44160;49.080;19.302;2022-07-23T09:57:09;4.88;;;4.38;;
58354;SDS011;44160;49.080;19.302;2022-07-23T09:59:39;7.20;;;4.85;;
58354;SDS011;44160;49.080;19.302;2022-07-23T10:02:06;5.40;;;4.68;;
58354;SDS011;44160;49.080;19.302;2022-07-23T10:04:33;7.15;;;5.15;;
58354;SDS011;44160;49.080;19.302;2022-07-23T10:07:00;6.65;;;5.13;;
58354;SDS011;44160;49.080;19.302;2022-07-23T10:09:28;6.68;;;5.20;;
58354;SDS011;44160;49.080;19.302;2022-07-23T10:11:55;9.10;;;5.35;;
58354;SDS011;44160;49.080;19.302;2022-07-23T10:14:29;5.28;;;4.65;;
58354;SDS011;44160;49.080;19.302;2022-07-23T10:16:57;6.63;;;5.13;;
58354;SDS011;44160;49.080;19.302;2022-07-23T10:19:24;5.65;;;4.90;;
58354;SDS011;44160;49.080;19.302;2022-07-23T10:21:52;8.25;;;4.75;;
58354;SDS011;44160;49.080;19.302;2022-07-23T10:32:00;5.05;;;4.65;;
58354;SDS011;44160;49.080;19.302;2022-07-23T10:34:34;6.00;;;5.50;;
58354;SDS011;44160;49.080;19.302;2022-07-23T10:39:29;8.85;;;4.53;;
58354;SDS011;44160;49.080;19.302;2022-07-23T10:42:12;7.65;;;5.30;;
58354;SDS011;44160;49.080;19.302;2022-07-23T10:44:43;6.32;;;5.10;;
58354;SDS011;44160;49.080;19.302;2022-07-23T10:47:10;6.68;;;5.60;;
58354;SDS011;44160;49.080;19.302;2022-07-23T10:49:45;6.97;;;5.13;;
58354;SDS011;44160;49.080;19.302;2022-07-23T10:54:41;6.13;;;5.50;;
58354;SDS011;44160;49.080;19.302;2022-07-23T10:57:07;5.57;;;4.97;;
58354;SDS011;44160;49.080;19.302;2022-07-23T11:02:22;8.88;;;5.70;;
58354;SDS011;44160;49.080;19.302;2022-07-23T11:07:15;5.70;;;5.05;;
58354;SDS011;44160;49.080;19.302;2022-07-23T11:09:42;6.18;;;5.57;;
58354;SDS011;44160;49.080;19.302;2022-07-23T11:17:29;5.72;;;5.22;;
58354;SDS011;44160;49.080;19.302;2022-07-23T11:25:29;7.05;;;5.07;;
58354;SDS011;44160;49.080;19.302;2022-07-23T11:27:55;8.15;;;5.55;;
58354;SDS011;44160;49.080;19.302;2022-07-23T11:35:34;9.70;;;4.82;;
58354;SDS011;44160;49.080;19.302;2022-07-23T11:38:07;5.93;;;5.25;;
58354;SDS011;44160;49.080;19.302;2022-07-23T11:40:34;6.55;;;5.47;;
58354;SDS011;44160;49.080;19.302;2022-07-23T11:43:04;5.82;;;4.80;;
58354;SDS011;44160;49.080;19.302;2022-07-23T11:45:41;7.07;;;4.75;;
58354;SDS011;44160;49.080;19.302;2022-07-23T11:48:08;6.28;;;5.07;;
58354;SDS011;44160;49.080;19.302;2022-07-23T11:50:35;6.88;;;5.57;;
58354;SDS011;44160;49.080;19.302;2022-07-23T11:53:01;7.32;;;5.55;;
58354;SDS011;44160;49.080;19.302;2022-07-23T11:55:28;6.25;;;5.07;;
58354;SDS011;44160;49.080;19.302;2022-07-23T11:57:54;6.97;;;5.53;;
58354;SDS011;44160;49.080;19.302;2022-07-23T12:00:25;7.90;;;5.35;;
58354;SDS011;44160;49.080;19.302;2022-07-23T12:02:53;8.90;;;5.63;;
58354;SDS011;44160;49.080;19.302;2022-07-23T12:05:20;6.95;;;5.70;;
58354;SDS011;44160;49.080;19.302;2022-07-23T12:07:47;10.32;;;5.55;;
58354;SDS011;44160;49.080;19.302;2022-07-23T12:12:48;7.22;;;5.13;;
58354;SDS011;44160;49.080;19.302;2022-07-23T12:15:15;7.50;;;5.22;;
58354;SDS011;44160;49.080;19.302;2022-07-23T12:17:43;5.82;;;5.05;;
58354;SDS011;44160;49.080;19.302;2022-07-23T12:20:10;6.43;;;5.80;;
58354;SDS011;44160;49.080;19.302;2022-07-23T12:22:42;6.00;;;5.40;;
58354;SDS011;44160;49.080;19.302;2022-07-23T12:25:12;6.80;;;4.88;;
58354;SDS011;44160;49.080;19.302;2022-07-23T12:27:38;7.43;;;4.80;;
58354;SDS011;44160;49.080;19.302;2022-07-23T12:33:00;8.07;;;5.05;;
58354;SDS011;44160;49.080;19.302;2022-07-23T12:35:31;11.15;;;5.57;;
58354;SDS011;44160;49.080;19.302;2022-07-23T12:38:00;6.65;;;5.28;;
58354;SDS011;44160;49.080;19.302;2022-07-23T12:40:31;9.20;;;5.57;;
58354;SDS011;44160;49.080;19.302;2022-07-23T12:43:03;5.80;;;5.03;;
58354;SDS011;44160;49.080;19.302;2022-07-23T12:45:52;6.97;;;5.10;;
58354;SDS011;44160;49.080;19.302;2022-07-23T12:51:01;8.40;;;4.63;;
58354;SDS011;44160;49.080;19.302;2022-07-23T12:56:14;5.57;;;4.68;;
58354;SDS011;44160;49.080;19.302;2022-07-23T12:58:48;7.07;;;4.43;;
58354;SDS011;44160;49.080;19.302;2022-07-23T13:01:33;5.47;;;4.97;;
58354;SDS011;44160;49.080;19.302;2022-07-23T13:06:33;5.45;;;4.60;;
58354;SDS011;44160;49.080;19.302;2022-07-23T13:08:59;8.00;;;5.00;;
58354;SDS011;44160;49.080;19.302;2022-07-23T13:11:25;6.70;;;4.50;;
58354;SDS011;44160;49.080;19.302;2022-07-23T13:13:51;5.82;;;4.70;;
58354;SDS011;44160;49.080;19.302;2022-07-23T13:16:18;5.22;;;4.72;;
58354;SDS011;44160;49.080;19.302;2022-07-23T13:18:44;6.05;;;4.90;;
58354;SDS011;44160;49.080;19.302;2022-07-23T13:21:10;6.97;;;4.72;;
58354;SDS011;44160;49.080;19.302;2022-07-23T13:23:36;7.30;;;5.60;;
58354;SDS011;44160;49.080;19.302;2022-07-23T13:26:03;5.38;;;4.45;;
58354;SDS011;44160;49.080;19.302;2022-07-23T13:28:29;7.57;;;4.72;;
58354;SDS011;44160;49.080;19.302;2022-07-23T13:30:55;5.65;;;4.88;;
58354;SDS011;44160;49.080;19.302;2022-07-23T13:33:23;6.45;;;5.53;;
58354;SDS011;44160;49.080;19.302;2022-07-23T13:35:50;9.90;;;4.85;;
58354;SDS011;44160;49.080;19.302;2022-07-23T13:38:16;6.22;;;5.25;;
58354;SDS011;44160;49.080;19.302;2022-07-23T13:40:43;6.40;;;4.63;;
58354;SDS011;44160;49.080;19.302;2022-07-23T13:43:10;5.15;;;4.55;;
58354;SDS011;44160;49.080;19.302;2022-07-23T13:45:37;7.75;;;4.35;;
58354;SDS011;44160;49.080;19.302;2022-07-23T13:48:03;6.22;;;4.32;;
58354;SDS011;44160;49.080;19.302;2022-07-23T13:50:29;6.20;;;4.40;;
58354;SDS011;44160;49.080;19.302;2022-07-23T13:52:56;6.15;;;5.13;;
58354;SDS011;44160;49.080;19.302;2022-07-23T13:55:22;8.07;;;5.00;;
58354;SDS011;44160;49.080;19.302;2022-07-23T13:57:48;7.72;;;4.38;;
58354;SDS011;44160;49.080;19.302;2022-07-23T14:00:14;10.52;;;3.90;;
58354;SDS011;44160;49.080;19.302;2022-07-23T14:02:40;16.50;;;4.03;;
58354;SDS011;44160;49.080;19.302;2022-07-23T14:05:07;10.52;;;4.28;;
58354;SDS011;44160;49.080;19.302;2022-07-23T14:07:34;11.25;;;4.68;;
58354;SDS011;44160;49.080;19.302;2022-07-23T14:10:00;12.85;;;4.28;;
58354;SDS011;44160;49.080;19.302;2022-07-23T14:12:26;7.90;;;4.00;;
58354;SDS011;44160;49.080;19.302;2022-07-23T14:14:53;4.93;;;4.43;;
58354;SDS011;44160;49.080;19.302;2022-07-23T14:17:19;8.43;;;4.55;;
58354;SDS011;44160;49.080;19.302;2022-07-23T14:19:45;4.40;;;4.00;;
58354;SDS011;44160;49.080;19.302;2022-07-23T14:22:11;9.32;;;4.53;;
58354;SDS011;44160;49.080;19.302;2022-07-23T14:24:38;7.18;;;4.30;;
58354;SDS011;44160;49.080;19.302;2022-07-23T14:27:04;6.97;;;4.40;;
58354;SDS011;44160;49.080;19.302;2022-07-23T14:29:30;6.68;;;4.35;;
58354;SDS011;44160;49.080;19.302;2022-07-23T14:31:57;6.57;;;4.43;;
58354;SDS011;44160;49.080;19.302;2022-07-23T14:34:23;7.15;;;4.78;;
58354;SDS011;44160;49.080;19.302;2022-07-23T14:36:51;6.85;;;4.10;;
58354;SDS011;44160;49.080;19.302;2022-07-23T14:39:20;7.18;;;3.30;;
58354;SDS011;44160;49.080;19.302;2022-07-23T14:41:46;4.90;;;3.22;;
58354;SDS011;44160;49.080;19.302;2022-07-23T14:44:12;5.05;;;3.08;;
58354;SDS011;44160;49.080;19.302;2022-07-23T14:46:38;6.15;;;2.85;;
58354;SDS011;44160;49.080;19.302;2022-07-23T14:49:04;8.00;;;3.40;;
58354;SDS011;44160;49.080;19.302;2022-07-23T14:51:31;6.28;;;3.50;;
58354;SDS011;44160;49.080;19.302;2022-07-23T14:53:58;7.47;;;3.70;;
58354;SDS011;44160;49.080;19.302;2022-07-23T14:56:24;3.88;;;3.17;;
58354;SDS011;44160;49.080;19.302;2022-07-23T14:58:50;4.60;;;3.28;;
58354;SDS011;44160;49.080;19.302;2022-07-23T15:01:16;5.88;;;3.78;;
58354;SDS011;44160;49.080;19.302;2022-07-23T15:03:42;5.78;;;3.97;;
58354;SDS011;44160;49.080;19.302;2022-07-23T15:06:08;8.13;;;4.00;;
58354;SDS011;44160;49.080;19.302;2022-07-23T15:08:34;7.53;;;4.13;;
58354;SDS011;44160;49.080;19.302;2022-07-23T15:11:01;5.90;;;4.20;;
58354;SDS011;44160;49.080;19.302;2022-07-23T15:13:27;5.07;;;4.25;;
58354;SDS011;44160;49.080;19.302;2022-07-23T15:15:53;7.97;;;3.70;;
58354;SDS011;44160;49.080;19.302;2022-07-23T15:18:19;6.68;;;4.18;;
58354;SDS011;44160;49.080;19.302;2022-07-23T15:20:45;5.85;;;4.20;;